createdAt,value
2023-04-28T00:00:31.857Z,50.834816
2023-04-28T00:01:31.867Z,50.834808
2023-04-28T00:02:31.951Z,50.834789
2023-04-28T00:03:31.940Z,50.834801
2023-04-28T00:04:33.033Z,50.834785
2023-04-28T00:05:31.863Z,50.834789
2023-04-28T00:06:31.777Z,50.834827
2023-04-28T00:07:31.844Z,50.834805
2023-04-28T00:08:31.751Z,50.834782
2023-04-28T00:09:31.755Z,50.834801
2023-04-28T00:10:31.773Z,50.834816
2023-04-28T00:11:31.756Z,50.834782
2023-04-28T00:12:31.784Z,50.834763
2023-04-28T00:13:31.729Z,50.834812
2023-04-28T00:14:31.735Z,50.834812
2023-04-28T00:15:31.822Z,50.834789
2023-04-28T00:16:31.762Z,50.834782
2023-04-28T00:17:31.830Z,50.834789
2023-04-28T00:18:31.720Z,50.834770
2023-04-28T00:19:31.696Z,50.834778
2023-04-28T00:20:31.685Z,50.834778
2023-04-28T00:21:31.664Z,50.834778
2023-04-28T00:22:31.657Z,50.834785
2023-04-28T00:23:31.652Z,50.834789
2023-04-28T00:24:31.653Z,50.834805
2023-04-28T00:25:31.649Z,50.834770
2023-04-28T00:26:31.616Z,50.834751
2023-04-28T00:27:31.616Z,50.834766
2023-04-28T00:28:34.650Z,50.834770
2023-04-28T00:29:32.679Z,50.834747
2023-04-28T00:30:31.598Z,50.834759
2023-04-28T00:31:31.583Z,50.834805
2023-04-28T00:32:31.639Z,50.834759
2023-04-28T00:33:31.597Z,50.834751
2023-04-28T00:34:31.584Z,50.834774
2023-04-28T00:35:31.567Z,50.834759
2023-04-28T00:36:31.553Z,50.834763
2023-04-28T00:37:31.545Z,50.834774
2023-04-28T00:38:31.551Z,50.834782
2023-04-28T00:39:31.529Z,50.834793
2023-04-28T00:40:31.562Z,50.834770
2023-04-28T00:41:31.522Z,50.834789
2023-04-28T00:42:31.519Z,50.834789
2023-04-28T00:43:31.505Z,50.834801
2023-04-28T00:44:31.495Z,50.834793
2023-04-28T00:45:32.261Z,50.834782
2023-04-28T00:46:31.508Z,50.834778
2023-04-28T00:47:31.486Z,50.834805
2023-04-28T00:48:31.497Z,50.834808
2023-04-28T00:49:31.464Z,50.834801
2023-04-28T00:50:31.472Z,50.834801
2023-04-28T00:51:31.473Z,50.834801
2023-04-28T00:52:31.441Z,50.834808
2023-04-28T00:53:31.433Z,50.834808
2023-04-28T00:54:31.418Z,50.834808
2023-04-28T00:55:31.426Z,50.834793
2023-04-28T00:56:31.421Z,50.834789
2023-04-28T00:57:31.407Z,50.834801
2023-04-28T00:58:31.407Z,50.834789
2023-04-28T00:59:31.411Z,50.834793
2023-04-28T01:00:31.373Z,50.834789
2023-04-28T01:01:31.428Z,50.834789
2023-04-28T01:02:31.467Z,50.834812
2023-04-28T01:03:31.472Z,50.834812
2023-04-28T01:04:31.745Z,50.834801
2023-04-28T01:05:31.336Z,50.834805
2023-04-28T01:06:31.335Z,50.834808
2023-04-28T01:07:31.340Z,50.834797
2023-04-28T01:08:31.295Z,50.834797
2023-04-28T01:09:31.299Z,50.834808
2023-04-28T01:10:31.290Z,50.834816
2023-04-28T01:11:31.272Z,50.834793
2023-04-28T01:12:31.292Z,50.834805
2023-04-28T01:13:31.263Z,50.834785
2023-04-28T01:14:31.260Z,50.834747
2023-04-28T01:15:31.254Z,50.834747
2023-04-28T01:16:31.365Z,50.834721
2023-04-28T01:17:31.294Z,50.834789
2023-04-28T01:18:31.234Z,50.834766
2023-04-28T01:19:31.233Z,50.834766
2023-04-28T01:20:31.214Z,50.834747
2023-04-28T01:21:31.211Z,50.834820
2023-04-28T01:22:31.233Z,50.834782
2023-04-28T01:23:31.219Z,50.834789
2023-04-28T01:24:31.169Z,50.834816
2023-04-28T01:25:31.162Z,50.834797
2023-04-28T01:26:31.201Z,50.834793
2023-04-28T01:27:31.193Z,50.834812
2023-04-28T01:28:31.172Z,50.834835
2023-04-28T01:29:31.128Z,50.834831
2023-04-28T01:30:31.132Z,50.834808
2023-04-28T01:31:31.297Z,50.834824
2023-04-28T01:32:31.160Z,50.834824
2023-04-28T01:33:31.151Z,50.834835
2023-04-28T01:34:31.122Z,50.834869
2023-04-28T01:35:31.084Z,50.834850
2023-04-28T01:36:31.111Z,50.834858
2023-04-28T01:37:31.083Z,50.834827
2023-04-28T01:38:31.200Z,50.834820
2023-04-28T01:39:31.096Z,50.834843
2023-04-28T01:40:31.276Z,50.834839
2023-04-28T01:41:31.078Z,50.834835
2023-04-28T01:42:31.295Z,50.834831
2023-04-28T01:43:31.056Z,50.834843
2023-04-28T01:44:31.044Z,50.834850
2023-04-28T01:45:31.037Z,50.834850
2023-04-28T01:46:31.037Z,50.834843
2023-04-28T01:47:31.093Z,50.834854
2023-04-28T01:48:31.014Z,50.834869
2023-04-28T01:49:31.014Z,50.834877
2023-04-28T01:50:31.036Z,50.834843
2023-04-28T01:51:30.977Z,50.834843
2023-04-28T01:52:30.989Z,50.834850
2023-04-28T01:53:30.962Z,50.834888
2023-04-28T01:54:30.997Z,50.834866
2023-04-28T01:55:30.969Z,50.834873
2023-04-28T01:56:30.940Z,50.834850
2023-04-28T01:57:30.931Z,50.834824
2023-04-28T01:58:30.950Z,50.834835
2023-04-28T01:59:30.943Z,50.834858
2023-04-28T02:00:30.954Z,50.834835
2023-04-28T02:01:30.909Z,50.834885
2023-04-28T02:02:30.997Z,50.834869
2023-04-28T02:03:30.941Z,50.834869
2023-04-28T02:04:30.898Z,50.834877
2023-04-28T02:05:30.902Z,50.834839
2023-04-28T02:06:30.874Z,50.834892
2023-04-28T02:07:30.867Z,50.834885
2023-04-28T02:08:30.847Z,50.834869
2023-04-28T02:09:30.840Z,50.834862
2023-04-28T02:10:30.870Z,50.834885
2023-04-28T02:11:30.852Z,50.834892
2023-04-28T02:12:30.812Z,50.834908
2023-04-28T02:13:30.841Z,50.834908
2023-04-28T02:14:30.799Z,50.834888
2023-04-28T02:15:30.816Z,50.834839
2023-04-28T02:16:30.835Z,50.834843
2023-04-28T02:17:30.872Z,50.834881
2023-04-28T02:18:30.831Z,50.834846
2023-04-28T02:19:30.766Z,50.834827
2023-04-28T02:20:33.056Z,50.834831
2023-04-28T02:21:31.762Z,50.834854
2023-04-28T02:22:30.780Z,50.834827
2023-04-28T02:23:30.731Z,50.834824
2023-04-28T02:24:30.746Z,50.834835
2023-04-28T02:25:30.713Z,50.834862
2023-04-28T02:26:30.741Z,50.834820
2023-04-28T02:27:30.712Z,50.834835
2023-04-28T02:28:30.716Z,50.834808
2023-04-28T02:29:30.693Z,50.834816
2023-04-28T02:30:30.678Z,50.834873
2023-04-28T02:31:30.740Z,50.834846
2023-04-28T02:32:30.675Z,50.834854
2023-04-28T02:33:30.687Z,50.834831
2023-04-28T02:34:30.673Z,50.834824
2023-04-28T02:35:30.659Z,50.834835
2023-04-28T02:36:30.636Z,50.834824
2023-04-28T02:37:30.643Z,50.834846
2023-04-28T02:38:30.643Z,50.834846
2023-04-28T02:39:30.620Z,50.834805
2023-04-28T02:40:30.625Z,50.834816
2023-04-28T02:41:30.615Z,50.834816
2023-04-28T02:42:30.604Z,50.834812
2023-04-28T02:43:30.613Z,50.834797
2023-04-28T02:44:30.604Z,50.834808
2023-04-28T02:45:30.597Z,50.834805
2023-04-28T02:46:30.630Z,50.834843
2023-04-28T02:47:30.601Z,50.834805
2023-04-28T02:48:30.568Z,50.834812
2023-04-28T02:49:30.566Z,50.834835
2023-04-28T02:50:30.602Z,50.834808
2023-04-28T02:51:30.525Z,50.834801
2023-04-28T02:52:30.528Z,50.834782
2023-04-28T02:53:30.511Z,50.834793
2023-04-28T02:54:30.539Z,50.834835
2023-04-28T02:55:30.504Z,50.834789
2023-04-28T02:56:30.498Z,50.834835
2023-04-28T02:57:30.480Z,50.834835
2023-04-28T02:58:30.486Z,50.834785
2023-04-28T02:59:30.501Z,50.834812
2023-04-28T03:00:30.461Z,50.834820
2023-04-28T03:01:30.517Z,50.834816
2023-04-28T03:02:30.534Z,50.834831
2023-04-28T03:03:30.570Z,50.834816
2023-04-28T03:04:30.580Z,50.834835
2023-04-28T03:05:30.464Z,50.834835
2023-04-28T03:06:30.449Z,50.834793
2023-04-28T03:07:30.418Z,50.834797
2023-04-28T03:08:30.402Z,50.834789
2023-04-28T03:09:30.432Z,50.834820
2023-04-28T03:10:30.404Z,50.834846
2023-04-28T03:11:30.386Z,50.834866
2023-04-28T03:12:30.376Z,50.834824
2023-04-28T03:13:30.378Z,50.834824
2023-04-28T03:14:30.397Z,50.834816
2023-04-28T03:15:30.388Z,50.834820
2023-04-28T03:16:30.417Z,50.834801
2023-04-28T03:17:30.402Z,50.834816
2023-04-28T03:18:30.352Z,50.834820
2023-04-28T03:19:30.339Z,50.834843
2023-04-28T03:20:31.362Z,50.834846
2023-04-28T03:21:30.337Z,50.834827
2023-04-28T03:22:30.304Z,50.834839
2023-04-28T03:23:30.306Z,50.834866
2023-04-28T03:24:30.306Z,50.834835
2023-04-28T03:25:30.293Z,50.834820
2023-04-28T03:26:30.313Z,50.834808
2023-04-28T03:27:30.282Z,50.834793
2023-04-28T03:28:30.250Z,50.834827
2023-04-28T03:29:31.253Z,50.834854
2023-04-28T03:30:30.285Z,50.834843
2023-04-28T03:31:30.289Z,50.834808
2023-04-28T03:32:30.309Z,50.834843
2023-04-28T03:33:30.223Z,50.834835
2023-04-28T03:34:30.216Z,50.834831
2023-04-28T03:35:30.238Z,50.834816
2023-04-28T03:36:30.205Z,50.834812
2023-04-28T03:37:30.206Z,50.834793
2023-04-28T03:38:30.179Z,50.834816
2023-04-28T03:39:30.164Z,50.834827
2023-04-28T03:40:30.160Z,50.834827
2023-04-28T03:41:30.303Z,50.834812
2023-04-28T03:42:30.170Z,50.834812
2023-04-28T03:43:30.143Z,50.834793
2023-04-28T03:44:30.144Z,50.834797
2023-04-28T03:45:30.130Z,50.834831
2023-04-28T03:46:30.170Z,50.834816
2023-04-28T04:05:16.045Z,50.834824
2023-04-28T04:06:15.927Z,50.834827
2023-04-28T04:07:15.871Z,50.834820
2023-04-28T04:08:15.872Z,50.834843
2023-04-28T04:09:15.868Z,50.834827
2023-04-28T04:10:15.922Z,50.834835
2023-04-28T04:11:15.869Z,50.834801
2023-04-28T04:12:15.878Z,50.834808
2023-04-28T04:13:15.903Z,50.834793
2023-04-28T04:14:16.036Z,50.834808
2023-04-28T04:15:15.844Z,50.834793
2023-04-28T04:16:15.908Z,50.834793
2023-04-28T04:17:15.821Z,50.834805
2023-04-28T04:18:15.793Z,50.834766
2023-04-28T04:19:15.782Z,50.834797
2023-04-28T04:20:15.773Z,50.834805
2023-04-28T04:21:15.783Z,50.834782
2023-04-28T04:22:15.776Z,50.834785
2023-04-28T04:23:15.751Z,50.834785
2023-04-28T04:24:16.070Z,50.834789
2023-04-28T04:25:15.774Z,50.834778
2023-04-28T04:26:15.745Z,50.834766
2023-04-28T04:27:15.727Z,50.834755
2023-04-28T04:28:16.713Z,50.834766
2023-04-28T04:29:15.722Z,50.834774
2023-04-28T04:30:15.745Z,50.834782
2023-04-28T04:31:15.784Z,50.834797
2023-04-28T04:32:15.686Z,50.834789
2023-04-28T04:33:15.690Z,50.834763
2023-04-28T04:34:16.004Z,50.834774
2023-04-28T04:35:15.704Z,50.834770
2023-04-28T04:36:15.645Z,50.834766
2023-04-28T04:37:15.646Z,50.834766
2023-04-28T04:38:15.622Z,50.834763
2023-04-28T04:39:15.625Z,50.834751
2023-04-28T04:40:15.665Z,50.834770
2023-04-28T04:41:15.608Z,50.834763
2023-04-28T04:42:24.849Z,50.834785
2023-04-28T04:43:17.633Z,50.834785
2023-04-28T04:44:15.812Z,50.834778
2023-04-28T04:45:15.600Z,50.834789
2023-04-28T04:46:15.596Z,50.834805
2023-04-28T04:47:15.590Z,50.834801
2023-04-28T04:48:15.580Z,50.834797
2023-04-28T04:49:15.550Z,50.834797
2023-04-28T04:50:15.556Z,50.834793
2023-04-28T04:51:15.529Z,50.834789
2023-04-28T04:52:15.547Z,50.834797
2023-04-28T04:53:16.603Z,50.834805
2023-04-28T04:54:16.828Z,50.834805
2023-04-28T04:55:22.283Z,50.834808
2023-04-28T04:56:15.509Z,50.834793
2023-04-28T04:57:15.498Z,50.834808
2023-04-28T04:58:15.546Z,50.834797
2023-04-28T04:59:15.501Z,50.834808
2023-04-28T05:00:15.479Z,50.834808
2023-04-28T05:01:15.473Z,50.834782
2023-04-28T05:02:15.492Z,50.834782
2023-04-28T05:03:15.550Z,50.834789
2023-04-28T05:04:15.754Z,50.834793
2023-04-28T05:05:21.454Z,50.834782
2023-04-28T05:06:17.421Z,50.834797
2023-04-28T05:07:15.412Z,50.834778
2023-04-28T05:08:15.406Z,50.834778
2023-04-28T05:09:15.422Z,50.834785
2023-04-28T05:10:15.424Z,50.834785
2023-04-28T05:11:15.411Z,50.834797
2023-04-28T05:12:15.396Z,50.834789
2023-04-28T05:13:15.387Z,50.834770
2023-04-28T05:14:16.062Z,50.834770
2023-04-28T05:15:16.410Z,50.834785
2023-04-28T05:16:15.372Z,50.834774
2023-04-28T05:17:15.370Z,50.834774
2023-04-28T05:18:15.406Z,50.834755
2023-04-28T05:19:15.328Z,50.834770
2023-04-28T05:20:15.339Z,50.834759
2023-04-28T05:21:15.321Z,50.834782
2023-04-28T05:22:15.392Z,50.834759
2023-04-28T05:23:15.316Z,50.834766
2023-04-28T05:24:15.536Z,50.834770
2023-04-28T05:25:15.312Z,50.834785
2023-04-28T05:26:15.412Z,50.834789
2023-04-28T05:27:15.269Z,50.834782
2023-04-28T05:28:15.262Z,50.834793
2023-04-28T05:29:15.248Z,50.834774
2023-04-28T05:30:15.266Z,50.834763
2023-04-28T05:31:16.264Z,50.834759
2023-04-28T05:32:15.369Z,50.834743
2023-04-28T05:33:15.243Z,50.834770
2023-04-28T05:34:15.435Z,50.834774
2023-04-28T05:35:15.227Z,50.834759
2023-04-28T05:36:15.227Z,50.834751
2023-04-28T05:37:15.176Z,50.834755
2023-04-28T05:38:15.186Z,50.834766
2023-04-28T05:39:15.194Z,50.834770
2023-04-28T05:40:15.999Z,50.834759
2023-04-28T05:41:15.206Z,50.834763
2023-04-28T05:42:15.342Z,50.834763
2023-04-28T05:43:15.148Z,50.834759
2023-04-28T05:44:15.308Z,50.834770
2023-04-28T05:45:15.128Z,50.834770
2023-04-28T05:46:29.266Z,50.834770
2023-04-28T05:47:17.142Z,50.834766
2023-04-28T05:48:15.117Z,50.834782
2023-04-28T05:49:15.117Z,50.834778
2023-04-28T05:50:15.091Z,50.834778
2023-04-28T05:51:15.072Z,50.834789
2023-04-28T05:52:15.098Z,50.834778
2023-04-28T05:53:15.106Z,50.834770
2023-04-28T05:54:15.233Z,50.834782
2023-04-28T05:55:15.058Z,50.834789
2023-04-28T05:56:15.053Z,50.834766
2023-04-28T05:57:15.083Z,50.834789
2023-04-28T05:58:16.050Z,50.834774
2023-04-28T05:59:15.240Z,50.834755
2023-04-28T06:00:15.025Z,50.834747
2023-04-28T06:01:15.320Z,50.834759
2023-04-28T06:02:15.093Z,50.834751
2023-04-28T06:03:15.218Z,50.834732
2023-04-28T06:04:15.215Z,50.834751
2023-04-28T06:05:15.098Z,50.834755
2023-04-28T06:06:14.995Z,50.834778
2023-04-28T06:07:15.200Z,50.834782
2023-04-28T06:08:14.965Z,50.834785
2023-04-28T06:09:15.146Z,50.834774
2023-04-28T06:10:14.963Z,50.834785
2023-04-28T06:11:14.934Z,50.834785
2023-04-28T06:12:14.948Z,50.834797
2023-04-28T06:13:15.051Z,50.834766
2023-04-28T06:14:15.166Z,50.834770
2023-04-28T06:15:14.912Z,50.834797
2023-04-28T06:16:14.898Z,50.834782
2023-04-28T06:17:14.897Z,50.834763
2023-04-28T06:18:14.886Z,50.834774
2023-04-28T06:19:14.931Z,50.834805
2023-04-28T06:20:15.525Z,50.834805
2023-04-28T06:21:14.870Z,50.834763
2023-04-28T06:22:14.850Z,50.834778
2023-04-28T06:23:14.880Z,50.834785
2023-04-28T06:24:15.061Z,50.834789
2023-04-28T06:25:14.856Z,50.834774
2023-04-28T06:26:16.262Z,50.834763
2023-04-28T06:27:15.823Z,50.834755
2023-04-28T06:28:14.861Z,50.834793
2023-04-28T06:29:14.914Z,50.834808
2023-04-28T06:30:14.823Z,50.834778
2023-04-28T06:31:14.884Z,50.834755
2023-04-28T06:32:14.781Z,50.834743
2023-04-28T06:33:14.808Z,50.834763
2023-04-28T06:34:14.898Z,50.834766
2023-04-28T06:35:14.771Z,50.834751
2023-04-28T06:36:14.745Z,50.834793
2023-04-28T06:37:14.795Z,50.834782
2023-04-28T06:38:14.865Z,50.834820
2023-04-28T06:39:14.771Z,50.834801
2023-04-28T06:40:14.723Z,50.834824
2023-04-28T06:41:14.733Z,50.834797
2023-04-28T06:42:14.783Z,50.834793
2023-04-28T06:43:14.738Z,50.834827
2023-04-28T06:44:14.955Z,50.834805
2023-04-28T06:45:14.749Z,50.834805
2023-04-28T06:46:14.758Z,50.834808
2023-04-28T06:47:15.094Z,50.834805
2023-04-28T06:48:14.680Z,50.834820
2023-04-28T06:49:14.691Z,50.834820
2023-04-28T06:50:14.649Z,50.834805
2023-04-28T06:51:14.659Z,50.834816
2023-04-28T06:52:14.612Z,50.834808
2023-04-28T06:53:14.649Z,50.834816
2023-04-28T06:54:14.877Z,50.834820
2023-04-28T06:55:14.611Z,50.834805
2023-04-28T06:56:14.600Z,50.834801
2023-04-28T06:57:14.615Z,50.834785
2023-04-28T06:58:14.734Z,50.834793
2023-04-28T06:59:14.659Z,50.834793
2023-04-28T07:00:14.611Z,50.834797
2023-04-28T07:01:14.690Z,50.834808
2023-04-28T07:02:14.597Z,50.834816
2023-04-28T07:03:14.648Z,50.834801
2023-04-28T07:04:14.817Z,50.834778
2023-04-28T07:05:16.273Z,50.834763
2023-04-28T07:06:15.522Z,50.834805
2023-04-28T07:07:14.544Z,50.834785
2023-04-28T07:08:14.548Z,50.834801
2023-04-28T07:09:14.567Z,50.834793
2023-04-28T07:10:14.496Z,50.834805
2023-04-28T07:11:14.490Z,50.834816
2023-04-28T07:12:14.506Z,50.834805
2023-04-28T07:13:14.481Z,50.834805
2023-04-28T07:14:14.582Z,50.834812
2023-04-28T07:15:14.495Z,50.834812
2023-04-28T07:16:14.506Z,50.834808
2023-04-28T07:17:15.437Z,50.834801
2023-04-28T07:18:14.502Z,50.834797
2023-04-28T07:19:14.437Z,50.834797
2023-04-28T07:20:14.447Z,50.834808
2023-04-28T07:21:14.401Z,50.834808
2023-04-28T07:22:14.450Z,50.834805
2023-04-28T07:23:14.415Z,50.834812
2023-04-28T07:24:14.517Z,50.834812
2023-04-28T07:25:14.387Z,50.834812
2023-04-28T07:26:14.813Z,50.834812
2023-04-28T07:27:15.380Z,50.834812
2023-04-28T07:28:14.365Z,50.834816
2023-04-28T07:29:14.361Z,50.834801
2023-04-28T07:30:26.422Z,50.834808
2023-04-28T07:31:16.365Z,50.834824
2023-04-28T07:32:14.494Z,50.834843
2023-04-28T07:33:14.417Z,50.834827
2023-04-28T07:34:14.543Z,50.834797
2023-04-28T07:35:14.346Z,50.834801
2023-04-28T07:36:14.304Z,50.834820
2023-04-28T07:37:14.306Z,50.834824
2023-04-28T07:38:14.333Z,50.834831
2023-04-28T07:39:14.276Z,50.834816
2023-04-28T07:40:14.266Z,50.834843
2023-04-28T07:41:14.297Z,50.834831
2023-04-28T07:42:14.262Z,50.834839
2023-04-28T07:43:14.263Z,50.834839
2023-04-28T07:44:14.403Z,50.834824
2023-04-28T07:45:14.224Z,50.834846
2023-04-28T07:46:14.348Z,50.834850
2023-04-28T07:47:14.212Z,50.834869
2023-04-28T07:48:14.256Z,50.834850
2023-04-28T07:49:14.219Z,50.834862
2023-04-28T07:50:14.222Z,50.834839
2023-04-28T07:51:14.174Z,50.834866
2023-04-28T07:52:14.176Z,50.834869
2023-04-28T07:53:14.177Z,50.834843
2023-04-28T07:54:14.225Z,50.834858
2023-04-28T07:55:15.036Z,50.834835
2023-04-28T07:56:14.136Z,50.834858
2023-04-28T07:57:14.139Z,50.834846
2023-04-28T07:58:14.135Z,50.834858
2023-04-28T07:59:14.153Z,50.834873
2023-04-28T08:00:14.125Z,50.834843
2023-04-28T08:01:14.141Z,50.834858
2023-04-28T08:02:14.132Z,50.834824
2023-04-28T08:03:14.229Z,50.834839
2023-04-28T08:04:14.820Z,50.834839
2023-04-28T08:05:14.430Z,50.834820
2023-04-28T08:06:14.069Z,50.834858
2023-04-28T08:07:14.053Z,50.834835
2023-04-28T08:08:14.056Z,50.834831
2023-04-28T08:09:15.043Z,50.834820
2023-04-28T08:10:14.109Z,50.834843
2023-04-28T08:11:14.038Z,50.834873
2023-04-28T08:12:14.019Z,50.834843
2023-04-28T08:13:13.994Z,50.834824
2023-04-28T08:14:14.217Z,50.834846
2023-04-28T08:15:14.016Z,50.834808
2023-04-28T08:16:14.027Z,50.834808
2023-04-28T08:17:14.056Z,50.834808
2023-04-28T08:18:13.995Z,50.834812
2023-04-28T08:19:13.958Z,50.834846
2023-04-28T08:20:13.998Z,50.834835
2023-04-28T08:21:13.952Z,50.834850
2023-04-28T08:22:14.003Z,50.834831
2023-04-28T08:23:13.956Z,50.834820
2023-04-28T08:24:14.642Z,50.834850
2023-04-28T08:25:13.918Z,50.834812
2023-04-28T08:26:13.919Z,50.834839
2023-04-28T08:27:14.530Z,50.834858
2023-04-28T08:28:13.925Z,50.834831
2023-04-28T08:29:13.889Z,50.834824
2023-04-28T08:30:14.015Z,50.834808
2023-04-28T08:31:13.882Z,50.834831
2023-04-28T08:32:14.097Z,50.834835
2023-04-28T08:33:13.944Z,50.834827
2023-04-28T08:34:16.335Z,50.834846
2023-04-28T08:35:13.841Z,50.834843
2023-04-28T08:36:13.835Z,50.834843
2023-04-28T08:37:13.814Z,50.834850
2023-04-28T08:38:14.113Z,50.834858
2023-04-28T08:39:13.905Z,50.834850
2023-04-28T08:40:14.520Z,50.834854
2023-04-28T08:41:13.821Z,50.834835
2023-04-28T08:42:13.796Z,50.834827
2023-04-28T08:43:13.806Z,50.834831
2023-04-28T08:44:13.803Z,50.834858
2023-04-28T08:45:13.753Z,50.834843
2023-04-28T08:46:13.791Z,50.834839
2023-04-28T08:47:13.780Z,50.834866
2023-04-28T08:48:13.728Z,50.834866
2023-04-28T08:49:13.751Z,50.834858
2023-04-28T08:50:13.724Z,50.834854
2023-04-28T08:51:13.708Z,50.834858
2023-04-28T08:52:13.719Z,50.834873
2023-04-28T08:53:13.719Z,50.834866
2023-04-28T08:54:25.473Z,50.834850
2023-04-28T08:55:15.692Z,50.834827
2023-04-28T08:56:13.681Z,50.834797
2023-04-28T08:57:13.680Z,50.834869
2023-04-28T08:58:13.683Z,50.834873
2023-04-28T08:59:13.689Z,50.834827
2023-04-28T09:00:13.699Z,50.834835
2023-04-28T09:01:13.646Z,50.834854
2023-04-28T09:02:13.660Z,50.834839
2023-04-28T09:03:13.799Z,50.834854
2023-04-28T09:04:14.618Z,50.834866
2023-04-28T09:05:13.964Z,50.834835
2023-04-28T09:06:13.635Z,50.834858
2023-04-28T09:07:13.648Z,50.834839
2023-04-28T09:08:13.586Z,50.834816
2023-04-28T09:09:13.587Z,50.834862
2023-04-28T09:10:13.590Z,50.834839
2023-04-28T09:11:13.644Z,50.834816
2023-04-28T09:12:13.586Z,50.834835
2023-04-28T09:13:13.590Z,50.834820
2023-04-28T09:14:13.604Z,50.834812
2023-04-28T09:15:13.551Z,50.834831
2023-04-28T09:16:14.533Z,50.834812
2023-04-28T09:17:13.567Z,50.834835
2023-04-28T09:18:13.632Z,50.834839
2023-04-28T09:19:13.515Z,50.834862
2023-04-28T09:20:13.549Z,50.834839
2023-04-28T09:21:13.497Z,50.834824
2023-04-28T09:22:26.441Z,50.834831
2023-04-28T09:23:15.478Z,50.834820
2023-04-28T09:24:13.558Z,50.834793
2023-04-28T09:25:13.487Z,50.834812
2023-04-28T09:26:13.473Z,50.834827
2023-04-28T09:27:13.489Z,50.834805
2023-04-28T09:28:13.474Z,50.834831
2023-04-28T09:29:13.500Z,50.834820
2023-04-28T09:30:13.450Z,50.834850
2023-04-28T09:31:13.429Z,50.834839
2023-04-28T09:32:13.483Z,50.834816
2023-04-28T09:33:13.451Z,50.834831
2023-04-28T09:34:13.564Z,50.834839
2023-04-28T09:35:14.038Z,50.834812
2023-04-28T09:36:13.396Z,50.834827
2023-04-28T09:37:14.382Z,50.834831
2023-04-28T09:38:13.406Z,50.834793
2023-04-28T09:39:13.402Z,50.834797
2023-04-28T09:40:13.354Z,50.834805
2023-04-28T09:41:13.408Z,50.834801
2023-04-28T09:42:13.336Z,50.834820
2023-04-28T09:43:21.467Z,50.834812
2023-04-28T09:44:15.632Z,50.834816
2023-04-28T09:45:13.358Z,50.834820
2023-04-28T09:46:13.378Z,50.834808
2023-04-28T09:47:13.305Z,50.834785
2023-04-28T09:48:13.433Z,50.834808
2023-04-28T09:49:13.343Z,50.834816
2023-04-28T09:50:13.354Z,50.834793
2023-04-28T09:51:13.357Z,50.834789
2023-04-28T09:52:13.296Z,50.834805
2023-04-28T09:53:13.270Z,50.834805
2023-04-28T09:54:13.286Z,50.834782
2023-04-28T09:55:13.320Z,50.834785
2023-04-28T09:56:13.249Z,50.834770
2023-04-28T09:57:13.252Z,50.834793
2023-04-28T09:58:13.242Z,50.834793
2023-04-28T09:59:13.220Z,50.834785
2023-04-28T10:00:13.217Z,50.834774
2023-04-28T10:01:13.323Z,50.834774
2023-04-28T10:02:41.106Z,50.834778
2023-04-28T10:03:15.320Z,50.834793
2023-04-28T10:04:13.293Z,50.834789
2023-04-28T10:05:13.436Z,50.834797
2023-04-28T10:06:13.211Z,50.834797
2023-04-28T10:07:13.158Z,50.834789
2023-04-28T10:08:13.888Z,50.834797
2023-04-28T10:09:13.178Z,50.834793
2023-04-28T10:10:13.175Z,50.834785
2023-04-28T10:11:13.141Z,50.834808
2023-04-28T10:12:13.139Z,50.834812
2023-04-28T10:13:13.121Z,50.834816
2023-04-28T10:14:13.112Z,50.834805
2023-04-28T10:15:13.134Z,50.834801
2023-04-28T10:16:13.148Z,50.834808
2023-04-28T10:17:13.121Z,50.834797
2023-04-28T10:18:13.140Z,50.834797
2023-04-28T10:19:13.073Z,50.834793
2023-04-28T10:20:13.158Z,50.834793
2023-04-28T10:21:13.042Z,50.834820
2023-04-28T10:22:13.069Z,50.834808
2023-04-28T10:23:13.046Z,50.834812
2023-04-28T10:24:13.023Z,50.834789
2023-04-28T10:25:13.050Z,50.834827
2023-04-28T10:26:13.061Z,50.834816
2023-04-28T10:27:13.047Z,50.834820
2023-04-28T10:28:13.012Z,50.834805
2023-04-28T10:29:12.991Z,50.834805
2023-04-28T10:30:22.855Z,50.834820
2023-04-28T10:31:14.985Z,50.834812
2023-04-28T10:32:13.019Z,50.834820
2023-04-28T10:33:13.001Z,50.834824
2023-04-28T10:34:12.943Z,50.834793
2023-04-28T10:35:12.967Z,50.834812
2023-04-28T10:36:12.940Z,50.834805
2023-04-28T10:37:13.003Z,50.834805
2023-04-28T10:38:12.947Z,50.834793
2023-04-28T10:39:12.909Z,50.834793
2023-04-28T10:40:12.984Z,50.834808
2023-04-28T10:41:12.898Z,50.834816
2023-04-28T10:42:12.900Z,50.834824
2023-04-28T10:43:12.953Z,50.834820
2023-04-28T10:44:12.902Z,50.834812
2023-04-28T10:45:12.867Z,50.834820
2023-04-28T10:46:12.958Z,50.834808
2023-04-28T10:47:13.556Z,50.834808
2023-04-28T10:48:12.907Z,50.834816
2023-04-28T10:49:12.868Z,50.834827
2023-04-28T10:50:12.886Z,50.834835
2023-04-28T10:51:12.908Z,50.834839
2023-04-28T10:52:12.856Z,50.834824
2023-04-28T10:53:12.832Z,50.834820
2023-04-28T10:54:12.864Z,50.834812
2023-04-28T10:55:21.813Z,50.834816
2023-04-28T10:56:14.786Z,50.834808
2023-04-28T10:57:12.788Z,50.834808
2023-04-28T10:58:13.268Z,50.834812
2023-04-28T10:59:13.661Z,50.834805
2023-04-28T11:00:12.808Z,50.834797
2023-04-28T11:01:12.807Z,50.834816
2023-04-28T11:02:12.795Z,50.834801
2023-04-28T11:03:12.839Z,50.834816
2023-04-28T11:04:12.896Z,50.834812
2023-04-28T11:05:12.840Z,50.834801
2023-04-28T11:06:12.705Z,50.834793
2023-04-28T11:07:12.769Z,50.834801
2023-04-28T11:08:12.712Z,50.834797
2023-04-28T11:09:12.811Z,50.834801
2023-04-28T11:10:12.704Z,50.834812
2023-04-28T11:11:12.677Z,50.834816
2023-04-28T11:12:12.668Z,50.834808
2023-04-28T11:13:12.682Z,50.834816
2023-04-28T11:14:12.725Z,50.834801
2023-04-28T11:15:12.656Z,50.834816
2023-04-28T11:16:12.684Z,50.834820
2023-04-28T11:17:12.637Z,50.834820
2023-04-28T11:18:12.676Z,50.834827
2023-04-28T11:19:12.654Z,50.834827
2023-04-28T11:20:12.653Z,50.834820
2023-04-28T11:21:12.604Z,50.834820
2023-04-28T11:22:12.689Z,50.834820
2023-04-28T11:23:12.658Z,50.834824
2023-04-28T11:24:12.556Z,50.834820
2023-04-28T11:25:12.565Z,50.834824
2023-04-28T11:26:12.570Z,50.834835
2023-04-28T11:27:12.582Z,50.834831
2023-04-28T11:28:12.547Z,50.834801
2023-04-28T11:29:12.521Z,50.834816
2023-04-28T11:30:12.520Z,50.834812
2023-04-28T11:31:12.582Z,50.834816
2023-04-28T11:32:13.469Z,50.834816
2023-04-28T11:33:12.580Z,50.834805
2023-04-28T11:34:12.522Z,50.834812
2023-04-28T11:35:12.514Z,50.834801
2023-04-28T11:36:12.491Z,50.834805
2023-04-28T11:37:12.507Z,50.834805
2023-04-28T11:38:13.514Z,50.834816
2023-04-28T11:39:12.505Z,50.834820
2023-04-28T11:40:12.450Z,50.834801
2023-04-28T11:41:12.453Z,50.834801
2023-04-28T11:42:12.457Z,50.834812